Time;durP1;ratioP1;P1;durP2;ratioP2;P2;SDS_P1;SDS_P2;PMS_P1;PMS_P2;Temp;Humidity;BMP_temperature;BMP_pressure;BME280_temperature;BME280_humidity;BME280_pressure;Samples;Min_cycle;Max_cycle;Signal;HPM_P1;HPM_P2
2023/08/14 00:01:31;;;;;;;2.50;1.02;;;16.70;99.90;;;;;;5072178;28;20123;-66
2023/08/14 00:03:57;;;;;;;3.45;1.20;;;16.70;99.90;;;;;;5022828;28;20032;-68
2023/08/14 00:06:23;;;;;;;3.28;1.10;;;16.70;99.90;;;;;;5071841;28;20136;-67
2023/08/14 00:08:49;;;;;;;3.47;1.10;;;16.70;99.90;;;;;;5072076;28;20043;-67
2023/08/14 00:11:14;;;;;;;2.65;1.10;;;16.70;99.90;;;;;;5055256;28;20155;-67
2023/08/14 00:13:56;;;;;;;4.15;1.17;;;16.60;99.90;;;;;;5071976;28;20037;-67
2023/08/14 00:16:25;;;;;;;2.80;1.10;;;16.60;99.90;;;;;;5055926;28;20040;-68
2023/08/14 00:18:53;;;;;;;4.53;1.30;;;16.60;99.90;;;;;;5055645;28;20397;-67
2023/08/14 00:21:19;;;;;;;3.50;1.30;;;16.50;99.90;;;;;;5072147;28;20507;-67
2023/08/14 00:23:45;;;;;;;4.28;1.20;;;16.60;99.90;;;;;;5071919;28;20389;-66
2023/08/14 00:26:15;;;;;;;3.70;1.30;;;16.50;99.90;;;;;;5072114;28;20046;-66
2023/08/14 00:28:41;;;;;;;2.90;1.15;;;16.50;99.90;;;;;;5072018;28;20041;-67
2023/08/14 00:31:07;;;;;;;6.25;1.40;;;16.40;99.90;;;;;;5071538;28;20058;-67
2023/08/14 00:33:33;;;;;;;3.97;1.17;;;16.40;99.90;;;;;;5072076;28;20036;-67
2023/08/14 00:36:01;;;;;;;5.50;1.50;;;16.40;99.90;;;;;;5072009;28;20044;-67
2023/08/14 00:38:33;;;;;;;3.05;1.20;;;16.40;99.90;;;;;;5071871;28;20049;-67
2023/08/14 00:40:59;;;;;;;;;;;16.30;99.90;;;;;;5055853;28;20045;-65
2023/08/14 00:43:25;;;;;;;4.70;1.33;;;16.20;99.90;;;;;;5071657;28;19917;-66
2023/08/14 00:45:58;;;;;;;3.13;1.25;;;16.20;99.90;;;;;;5054927;28;20139;-66
2023/08/14 00:48:29;;;;;;;3.65;1.20;;;16.20;99.90;;;;;;5071947;28;20535;-66
2023/08/14 00:50:55;;;;;;;4.57;1.77;;;16.20;99.90;;;;;;5054994;28;20052;-68
2023/08/14 00:53:24;;;;;;;4.10;1.70;;;16.20;99.90;;;;;;5071916;28;20033;-67
2023/08/14 00:55:50;;;;;;;4.03;1.45;;;16.20;99.90;;;;;;5071593;28;20101;-67
2023/08/14 00:58:16;;;;;;;4.57;1.60;;;16.10;99.90;;;;;;5054864;28;20037;-67
2023/08/14 01:00:43;;;;;;;3.80;1.40;;;16.10;99.90;;;;;;5071513;28;20055;-66
2023/08/14 01:03:10;;;;;;;4.55;1.80;;;16.10;99.90;;;;;;5055126;28;20044;-67
2023/08/14 01:05:35;;;;;;;4.78;2.20;;;16.10;99.90;;;;;;5071361;28;20040;-66
2023/08/14 01:08:02;;;;;;;5.20;1.80;;;16.10;99.90;;;;;;5071433;28;20052;-67
2023/08/14 01:10:56;;;;;;;3.55;1.55;;;16.10;99.90;;;;;;5038783;28;20041;-66
2023/08/14 01:13:54;;;;;;;6.65;2.25;;;16.10;99.90;;;;;;5071756;28;20032;-66
2023/08/14 01:16:24;;;;;;;4.93;1.85;;;16.10;99.90;;;;;;5071344;28;20055;-66
2023/08/14 01:18:52;;;;;;;4.55;1.90;;;16.10;99.90;;;;;;5071596;28;20462;-66
2023/08/14 01:21:45;;;;;;;5.30;2.03;;;16.10;99.90;;;;;;5071580;28;20053;-66
2023/08/14 01:24:14;;;;;;;5.15;2.00;;;16.10;99.90;;;;;;5071293;28;20452;-65
2023/08/14 01:26:40;;;;;;;4.88;1.90;;;16.10;99.90;;;;;;5071629;28;20037;-66
2023/08/14 01:29:06;;;;;;;5.03;2.30;;;16.10;99.90;;;;;;5071155;28;20044;-66
2023/08/14 01:31:32;;;;;;;6.45;3.80;;;16.10;99.90;;;;;;5074455;28;20055;-66
2023/08/14 01:33:59;;;;;;;5.95;2.17;;;16.10;99.90;;;;;;5057624;28;20067;-66
2023/08/14 01:36:43;;;;;;;5.97;2.05;;;16.00;99.90;;;;;;5025012;28;20047;-67
2023/08/14 01:39:12;;;;;;;5.43;2.13;;;15.90;99.90;;;;;;5078355;28;20119;-66
2023/08/14 01:42:08;;;;;;;5.30;2.22;;;15.90;99.90;;;;;;5028283;28;20380;-67
2023/08/14 01:44:40;;;;;;;5.88;2.10;;;15.90;99.90;;;;;;5061405;28;20044;-66
2023/08/14 01:47:16;;;;;;;5.78;2.45;;;15.90;99.90;;;;;;5078281;28;20040;-65
2023/08/14 01:49:44;;;;;;;4.70;2.60;;;15.90;99.90;;;;;;5077847;28;20036;-67
2023/08/14 01:52:10;;;;;;;4.93;2.10;;;15.80;99.90;;;;;;5077984;28;20047;-66
2023/08/14 01:54:36;;;;;;;6.10;3.08;;;15.60;99.90;;;;;;5045033;28;20360;-66
2023/08/14 01:57:02;;;;;;;6.38;3.50;;;15.60;99.90;;;;;;5078081;28;20035;-67
2023/08/14 01:59:50;;;;;;;5.25;2.25;;;15.50;99.90;;;;;;5028259;28;20044;-67
2023/08/14 02:02:16;;;;;;;5.85;2.50;;;15.40;99.90;;;;;;5078042;28;20047;-66
2023/08/14 02:04:47;;;;;;;5.50;2.30;;;15.40;99.90;;;;;;5077951;28;20036;-67
2023/08/14 02:07:13;;;;;;;;;;;15.40;99.90;;;;;;5078402;28;20040;-66
2023/08/14 02:09:44;;;;;;;4.57;1.98;;;15.40;99.90;;;;;;5077643;28;19916;-66
2023/08/14 02:12:12;;;;;;;5.50;2.20;;;15.40;99.90;;;;;;5061511;28;20040;-67
2023/08/14 02:14:38;;;;;;;5.38;2.35;;;15.50;99.90;;;;;;5077540;28;20040;-66
2023/08/14 02:17:10;;;;;;;5.03;2.50;;;15.50;99.90;;;;;;5061117;28;20496;-67
2023/08/14 02:19:36;;;;;;;6.50;2.65;;;15.50;99.90;;;;;;5078078;28;20043;-66
2023/08/14 02:22:02;;;;;;;6.28;2.80;;;15.40;99.90;;;;;;5044475;28;20047;-65
2023/08/14 02:24:31;;;;;;;6.53;2.78;;;15.50;99.90;;;;;;5077333;28;20047;-66
2023/08/14 02:26:57;;;;;;;5.72;3.03;;;15.50;99.90;;;;;;5077629;28;20119;-66
2023/08/14 02:29:22;;;;;;;7.82;4.63;;;15.50;99.90;;;;;;5076889;28;20075;-66
2023/08/14 02:31:50;;;;;;;7.30;3.20;;;15.50;99.90;;;;;;5077225;28;20062;-66
2023/08/14 02:34:45;;;;;;;6.03;2.88;;;15.50;99.90;;;;;;5077460;28;20050;-65
2023/08/14 02:37:17;;;;;;;5.95;3.05;;;15.50;99.90;;;;;;5077126;28;20043;-66
2023/08/14 02:39:50;;;;;;;5.78;2.63;;;15.50;99.90;;;;;;5077137;28;20044;-66
2023/08/14 02:42:22;;;;;;;6.53;3.50;;;15.50;99.90;;;;;;5077357;28;20078;-66
2023/08/14 02:44:48;;;;;;;7.13;3.58;;;15.50;99.90;;;;;;5095016;28;20036;-67
2023/08/14 02:47:23;;;;;;;10.38;5.75;;;15.50;99.90;;;;;;5077147;28;20038;-66
2023/08/14 02:49:49;;;;;;;11.73;7.82;;;15.50;99.90;;;;;;5076697;28;20055;-66
2023/08/14 02:52:15;;;;;;;12.57;9.15;;;15.50;99.90;;;;;;5060077;28;20115;-66
2023/08/14 02:54:41;;;;;;;13.40;9.65;;;15.40;99.90;;;;;;5076621;28;20074;-66
2023/08/14 02:57:10;;;;;;;14.40;10.15;;;15.40;99.90;;;;;;5077035;28;20036;-65
2023/08/14 02:59:36;;;;;;;13.43;10.05;;;15.30;99.90;;;;;;5076860;28;20051;-65
2023/08/14 03:02:02;;;;;;;15.27;10.02;;;15.30;99.90;;;;;;5043705;28;20404;-66
2023/08/14 03:04:29;;;;;;;15.13;10.48;;;15.30;99.90;;;;;;5076825;28;20126;-68
2023/08/14 03:06:59;;;;;;;13.43;10.30;;;15.30;99.90;;;;;;5060407;28;20040;-66
2023/08/14 03:09:25;;;;;;;13.43;10.52;;;15.30;99.90;;;;;;5043198;28;20040;-67
2023/08/14 03:11:50;;;;;;;15.02;10.38;;;15.40;99.90;;;;;;5076588;28;20043;-66
2023/08/14 03:14:25;;;;;;;14.57;10.18;;;15.40;99.90;;;;;;5043155;28;20185;-67
2023/08/14 03:16:51;;;;;;;15.30;11.07;;;15.30;99.90;;;;;;5060080;28;20044;-67
2023/08/14 03:19:20;;;;;;;13.30;10.75;;;15.30;99.90;;;;;;5076605;28;20039;-66
2023/08/14 03:21:50;;;;;;;13.75;10.55;;;15.20;99.90;;;;;;5059616;28;20032;-65
2023/08/14 03:24:17;;;;;;;10.70;7.90;;;15.20;99.90;;;;;;5076239;28;20051;-65
2023/08/14 03:26:43;;;;;;;10.15;6.72;;;15.20;99.90;;;;;;5076379;28;20043;-66
2023/08/14 03:29:18;;;;;;;12.88;9.15;;;15.20;99.90;;;;;;5075967;28;20036;-67
2023/08/14 03:31:48;;;;;;;13.85;9.93;;;15.20;99.90;;;;;;5075831;28;20063;-66
2023/08/14 03:34:13;;;;;;;12.68;10.52;;;15.20;99.90;;;;;;5075903;28;20036;-65
2023/08/14 03:36:39;;;;;;;14.25;10.98;;;15.20;99.90;;;;;;5075857;28;20514;-66
2023/08/14 03:39:16;;;;;;;14.30;10.13;;;15.20;99.90;;;;;;5075948;28;20399;-67
2023/08/14 03:41:47;;;;;;;17.30;9.98;;;15.20;99.90;;;;;;5059518;28;20075;-66
2023/08/14 03:44:13;;;;;;;13.73;10.45;;;15.20;99.90;;;;;;5076084;28;20434;-65
2023/08/14 03:46:39;;;;;;;16.55;10.95;;;15.20;99.90;;;;;;5059256;28;20047;-66
2023/08/14 03:49:05;;;;;;;13.57;9.70;;;15.20;99.90;;;;;;5059192;28;20050;-66
2023/08/14 03:51:40;;;;;;;9.95;7.97;;;15.20;99.90;;;;;;5075598;28;20043;-67
2023/08/14 03:54:10;;;;;;;8.85;5.45;;;15.10;99.90;;;;;;5076375;28;20071;-66
2023/08/14 03:56:36;;;;;;;12.98;8.73;;;15.10;99.90;;;;;;5027495;28;20453;-67
2023/08/14 03:59:01;;;;;;;8.38;5.68;;;15.10;99.90;;;;;;5059307;28;20122;-66
2023/08/14 04:01:28;;;;;;;8.52;5.60;;;15.10;99.90;;;;;;5042194;28;20122;-66
2023/08/14 04:03:53;;;;;;;8.10;5.30;;;15.10;99.90;;;;;;5075993;28;20510;-67
2023/08/14 04:06:27;;;;;;;9.52;5.38;;;15.10;99.90;;;;;;5076679;28;20127;-66
2023/08/14 04:08:53;;;;;;;8.15;5.22;;;15.10;99.90;;;;;;5077483;28;20036;-66
2023/08/14 04:11:19;;;;;;;9.23;5.18;;;15.10;99.90;;;;;;5059306;28;20054;-66
2023/08/14 04:13:45;;;;;;;9.40;5.03;;;15.10;99.90;;;;;;5075954;28;20039;-66
2023/08/14 04:16:10;;;;;;;10.25;8.10;;;15.20;99.90;;;;;;5075469;28;20506;-66
2023/08/14 04:18:36;;;;;;;8.60;6.03;;;15.20;99.90;;;;;;5075398;28;20530;-66
2023/08/14 04:21:03;;;;;;;12.20;6.57;;;15.10;99.90;;;;;;5075636;28;20127;-67
2023/08/14 04:23:32;;;;;;;9.10;6.13;;;15.20;99.90;;;;;;5075269;28;20044;-66
2023/08/14 04:25:58;;;;;;;11.82;7.30;;;15.10;99.90;;;;;;5075168;28;20040;-67
2023/08/14 04:28:24;;;;;;;9.43;6.75;;;15.20;99.90;;;;;;5075182;28;20044;-66
2023/08/14 04:30:50;;;;;;;9.98;6.63;;;15.10;99.90;;;;;;5075292;28;20056;-66
2023/08/14 04:33:16;;;;;;;8.35;5.63;;;15.10;99.90;;;;;;5058661;28;20040;-66
2023/08/14 04:35:42;;;;;;;8.07;5.45;;;15.10;99.90;;;;;;5075354;28;20557;-66
2023/08/14 04:38:08;;;;;;;8.05;5.30;;;15.10;99.90;;;;;;5058390;28;20040;-66
2023/08/14 04:40:34;;;;;;;9.13;6.28;;;15.10;99.90;;;;;;5075439;28;20090;-66
2023/08/14 04:42:59;;;;;;;9.13;6.00;;;15.20;99.90;;;;;;5058421;28;20050;-66
2023/08/14 04:45:25;;;;;;;8.07;5.35;;;15.20;99.90;;;;;;5093140;28;20044;-68
2023/08/14 04:47:51;;;;;;;7.30;5.03;;;15.20;99.90;;;;;;5074945;28;20138;-70
2023/08/14 04:50:17;;;;;;;8.35;5.60;;;15.20;99.90;;;;;;5075052;28;20055;-66
2023/08/14 04:52:46;;;;;;;8.15;5.50;;;15.30;99.90;;;;;;5074704;28;20118;-69
2023/08/14 04:55:12;;;;;;;9.23;5.40;;;15.30;99.90;;;;;;5075008;28;20036;-67
2023/08/14 04:57:38;;;;;;;15.68;11.35;;;15.30;99.90;;;;;;5074865;28;20047;-69
2023/08/14 05:00:04;;;;;;;11.00;8.35;;;15.30;99.90;;;;;;5075218;28;20044;-67
2023/08/14 05:02:30;;;;;;;13.38;11.30;;;15.40;99.90;;;;;;5074990;28;20366;-67
2023/08/14 05:04:56;;;;;;;13.65;11.02;;;15.40;99.90;;;;;;5058249;28;20071;-67
2023/08/14 05:07:22;;;;;;;14.25;10.30;;;15.40;99.90;;;;;;5058160;28;20066;-68
2023/08/14 05:09:50;;;;;;;16.05;12.82;;;15.50;99.90;;;;;;5058245;28;20032;-69
2023/08/14 05:12:16;;;;;;;15.88;11.10;;;15.40;99.90;;;;;;5076088;28;20036;-67
2023/08/14 05:14:42;;;;;;;18.13;13.63;;;15.50;99.90;;;;;;5062026;28;20433;-67
2023/08/14 05:17:08;;;;;;;15.27;12.30;;;15.50;99.90;;;;;;5078965;28;20040;-66
2023/08/14 05:19:35;;;;;;;18.77;14.13;;;15.50;99.90;;;;;;5061921;28;20384;-67
2023/08/14 05:22:00;;;;;;;15.05;10.30;;;15.50;99.90;;;;;;5078608;28;20472;-67
2023/08/14 05:24:26;;;;;;;14.60;10.88;;;15.50;99.90;;;;;;5062078;28;20079;-66
2023/08/14 05:26:52;;;;;;;13.70;10.77;;;15.50;99.90;;;;;;5045344;28;20046;-66
2023/08/14 05:29:24;;;;;;;16.02;11.82;;;15.60;99.90;;;;;;5078636;28;20036;-66
2023/08/14 05:31:50;;;;;;;14.55;11.95;;;15.70;99.90;;;;;;5078571;28;20051;-67
2023/08/14 05:34:16;;;;;;;16.55;12.80;;;15.80;99.90;;;;;;5045041;28;20571;-66
2023/08/14 05:36:42;;;;;;;14.68;12.40;;;15.90;99.90;;;;;;5078179;28;20399;-67
2023/08/14 05:39:08;;;;;;;18.58;14.35;;;16.00;99.90;;;;;;5045135;28;20115;-67
2023/08/14 05:41:38;;;;;;;16.10;12.63;;;16.50;99.90;;;;;;5045184;28;20491;-68
2023/08/14 05:44:07;;;;;;;17.23;11.73;;;17.00;99.90;;;;;;5029750;28;20101;-66
2023/08/14 05:46:36;;;;;;;15.75;11.45;;;17.40;99.90;;;;;;5060498;28;20093;-67
2023/08/14 05:49:02;;;;;;;14.45;9.40;;;18.10;99.90;;;;;;5061307;28;20040;-67
2023/08/14 05:51:32;;;;;;;11.90;8.85;;;18.40;99.90;;;;;;5078006;28;20105;-67
2023/08/14 05:54:04;;;;;;;11.95;8.20;;;18.90;99.90;;;;;;5062573;28;20127;-67
2023/08/14 05:56:30;;;;;;;11.35;7.55;;;19.30;99.90;;;;;;5045334;28;20040;-67
2023/08/14 05:58:59;;;;;;;12.73;6.75;;;19.70;99.90;;;;;;5077739;28;20134;-67
2023/08/14 06:01:28;;;;;;;11.98;6.93;;;19.60;99.90;;;;;;5061819;28;20101;-67
2023/08/14 06:03:54;;;;;;;13.27;7.80;;;19.50;99.90;;;;;;5044860;28;20473;-67
2023/08/14 06:06:20;;;;;;;13.57;6.78;;;19.40;99.90;;;;;;5078008;28;20047;-67
2023/08/14 06:08:46;;;;;;;11.73;7.50;;;19.30;99.90;;;;;;5077670;28;20124;-67
2023/08/14 06:11:18;;;;;;;11.95;7.20;;;19.40;99.90;;;;;;5077694;28;20032;-66
2023/08/14 06:13:43;;;;;;;;;;;19.70;99.90;;;;;;5045502;28;20046;-66
2023/08/14 06:16:12;;;;;;;10.50;6.32;;;20.20;99.90;;;;;;5077520;28;20354;-67
2023/08/14 06:18:44;;;;;;;9.75;5.60;;;20.60;99.90;;;;;;5061853;28;20036;-67
2023/08/14 06:21:10;;;;;;;10.45;5.97;;;20.80;99.90;;;;;;5027771;28;20376;-67
2023/08/14 06:23:36;;;;;;;10.57;5.72;;;20.90;99.90;;;;;;5043881;28;20036;-68
2023/08/14 06:26:09;;;;;;;11.30;6.13;;;21.30;99.90;;;;;;5060918;28;20047;-67
2023/08/14 06:28:34;;;;;;;9.13;5.10;;;21.00;99.90;;;;;;5077299;28;20046;-68
2023/08/14 06:31:03;;;;;;;12.05;6.22;;;20.90;99.90;;;;;;5060432;28;20131;-67
2023/08/14 06:33:29;;;;;;;9.63;5.20;;;20.90;99.90;;;;;;5060562;28;20047;-66
2023/08/14 06:35:55;;;;;;;10.05;4.70;;;21.00;99.90;;;;;;5077138;28;20399;-67
2023/08/14 06:38:24;;;;;;;9.40;5.35;;;21.00;99.90;;;;;;5077147;28;20040;-67
2023/08/14 06:40:50;;;;;;;9.27;5.15;;;21.00;99.90;;;;;;5044590;28;20042;-67
2023/08/14 06:43:16;;;;;;;11.35;5.63;;;20.80;99.90;;;;;;5060433;28;20492;-67
2023/08/14 06:45:42;;;;;;;8.18;4.30;;;20.70;99.90;;;;;;5077093;28;20023;-68
2023/08/14 06:48:08;;;;;;;7.57;3.90;;;20.60;99.90;;;;;;5044089;28;20047;-68
2023/08/14 06:50:33;;;;;;;7.60;3.78;;;20.50;99.90;;;;;;5060103;28;20498;-68
2023/08/14 06:52:59;;;;;;;9.23;4.30;;;20.40;99.90;;;;;;5076803;28;20040;-67
2023/08/14 06:55:25;;;;;;;8.07;3.90;;;20.30;99.90;;;;;;5076872;28;20036;-67
2023/08/14 06:57:51;;;;;;;8.23;3.78;;;20.20;99.90;;;;;;5060150;28;20040;-67
2023/08/14 07:00:19;;;;;;;9.88;4.30;;;20.20;99.90;;;;;;5076968;28;20110;-67
2023/08/14 07:02:47;;;;;;;8.43;4.10;;;20.20;99.90;;;;;;5076596;28;20044;-67
2023/08/14 07:05:19;;;;;;;9.10;4.03;;;20.20;99.90;;;;;;5060954;28;20561;-68
2023/08/14 07:07:54;;;;;;;8.55;3.80;;;20.20;99.90;;;;;;5059823;28;20044;-67
2023/08/14 07:10:20;;;;;;;9.45;3.83;;;20.20;99.90;;;;;;5076981;28;20491;-68
2023/08/14 07:12:46;;;;;;;9.35;4.15;;;20.20;99.90;;;;;;5076371;28;20036;-67
2023/08/14 07:15:20;;;;;;;8.80;4.10;;;20.20;99.90;;;;;;5076753;28;20043;-67
2023/08/14 07:17:49;;;;;;;8.52;4.35;;;20.20;99.90;;;;;;5076282;28;20037;-66
2023/08/14 07:20:15;;;;;;;8.75;4.65;;;20.30;99.90;;;;;;5076568;28;20048;-67
2023/08/14 07:22:41;;;;;;;11.68;7.75;;;20.30;99.90;;;;;;5059878;28;20051;-67
2023/08/14 07:25:08;;;;;;;12.77;10.02;;;20.40;99.90;;;;;;5076476;28;20035;-67
2023/08/14 07:27:34;;;;;;;11.73;8.13;;;20.50;99.90;;;;;;5059679;28;20043;-66
2023/08/14 07:29:59;;;;;;;13.50;7.32;;;20.50;99.90;;;;;;5059417;28;20059;-66
2023/08/14 07:32:25;;;;;;;8.52;5.85;;;20.50;99.90;;;;;;5059324;28;20079;-66
2023/08/14 07:34:51;;;;;;;9.80;5.32;;;20.40;99.90;;;;;;5075399;28;20044;-66
2023/08/14 07:37:17;;;;;;;9.70;5.28;;;20.50;99.90;;;;;;5059422;28;20170;-67
2023/08/14 07:39:43;;;;;;;8.68;5.45;;;20.40;99.90;;;;;;5042984;28;20483;-66
2023/08/14 07:42:09;;;;;;;11.68;6.15;;;20.50;99.90;;;;;;5076022;28;20046;-66
2023/08/14 07:44:43;;;;;;;10.07;5.25;;;20.40;99.90;;;;;;5075932;28;20062;-67
2023/08/14 07:47:10;;;;;;;10.23;5.10;;;20.40;99.90;;;;;;5076019;28;20032;-66
2023/08/14 07:50:03;;;;;;;8.93;4.65;;;20.50;99.90;;;;;;5075785;28;20055;-66
2023/08/14 07:52:30;;;;;;;8.98;4.82;;;20.90;99.90;;;;;;5072260;28;20415;-67
2023/08/14 07:54:59;;;;;;;8.43;4.18;;;21.10;99.90;;;;;;5075912;28;20051;-67
2023/08/14 07:57:24;;;;;;;10.23;4.78;;;21.70;99.90;;;;;;5075827;28;20039;-66
2023/08/14 07:59:51;;;;;;;8.15;4.40;;;22.30;99.90;;;;;;5024336;28;20144;-66
2023/08/14 08:02:20;;;;;;;9.50;3.67;;;22.60;99.90;;;;;;5066992;28;20442;-66
2023/08/14 08:04:46;;;;;;;8.25;3.13;;;23.00;99.90;;;;;;5075533;28;20126;-67
2023/08/14 08:07:12;;;;;;;6.95;2.78;;;23.30;99.90;;;;;;5075429;28;20044;-66
2023/08/14 08:09:42;;;;;;;6.30;2.50;;;23.50;99.90;;;;;;5075386;28;20055;-67
2023/08/14 08:12:09;;;;;;;7.75;2.80;;;23.50;99.90;;;;;;5058383;28;20032;-67
2023/08/14 08:14:38;;;;;;;6.85;2.40;;;23.40;99.90;;;;;;5075784;28;20036;-67
2023/08/14 08:17:05;;;;;;;8.23;2.47;;;23.50;99.90;;;;;;5093515;28;20092;-66
2023/08/14 08:19:31;;;;;;;7.90;2.40;;;23.60;99.90;;;;;;5048082;28;20047;-67
2023/08/14 08:22:00;;;;;;;6.80;2.20;;;23.70;99.90;;;;;;5058525;28;20408;-67
2023/08/14 08:24:35;;;;;;;6.00;2.17;;;24.10;99.90;;;;;;5044200;28;20058;-66
2023/08/14 08:27:00;;;;;;;6.60;2.30;;;24.10;99.90;;;;;;5041940;28;20051;-66
2023/08/14 08:29:26;;;;;;;8.88;2.25;;;24.10;99.90;;;;;;5075039;28;20040;-66
2023/08/14 08:32:04;;;;;;;6.68;2.20;;;24.20;99.90;;;;;;5075119;28;20511;-65
2023/08/14 08:34:30;;;;;;;8.73;2.30;;;24.40;99.90;;;;;;5058928;28;20222;-66
2023/08/14 08:36:56;;;;;;;4.93;1.90;;;24.70;99.90;;;;;;5058403;28;20036;-64
2023/08/14 08:39:22;;;;;;;7.88;2.28;;;24.80;99.90;;;;;;5074963;28;20032;-65
2023/08/14 08:41:48;;;;;;;8.68;2.22;;;25.10;99.90;;;;;;5075085;28;20043;-64
2023/08/14 08:44:20;;;;;;;23.70;3.60;;;25.40;99.90;;;;;;5075166;28;20069;-65
2023/08/14 08:46:56;;;;;;;12.60;2.40;;;25.50;99.90;;;;;;5077821;28;20036;-72
2023/08/14 08:49:22;;;;;;;7.32;2.00;;;25.90;99.90;;;;;;5079535;28;20043;-72
2023/08/14 08:51:58;;;;;;;8.45;2.10;;;26.10;99.90;;;;;;5079409;28;20048;-73
2023/08/14 08:54:24;;;;;;;8.40;1.90;;;26.00;99.90;;;;;;5064253;28;20036;-72
2023/08/14 08:56:51;;;;;;;8.65;1.88;;;26.00;99.90;;;;;;5079387;28;20076;-72
2023/08/14 08:59:16;;;;;;;10.25;2.10;;;26.20;99.90;;;;;;5079280;28;20093;-74
2023/08/14 09:01:43;;;;;;;12.50;2.38;;;26.40;99.90;;;;;;5079703;28;20048;-72
2023/08/14 09:04:09;;;;;;;5.38;1.73;;;26.60;99.90;;;;;;5097382;28;20040;-73
2023/08/14 09:06:41;;;;;;;14.65;2.65;;;26.60;99.90;;;;;;5062636;28;20044;-72
2023/08/14 09:09:08;;;;;;;10.35;2.30;;;26.70;99.90;;;;;;5080829;28;20066;-71
2023/08/14 09:11:38;;;;;;;6.03;1.75;;;26.60;99.90;;;;;;5079325;28;20040;-72
2023/08/14 09:14:07;;;;;;;6.57;1.85;;;26.60;99.90;;;;;;5079792;28;20511;-72
2023/08/14 09:16:33;;;;;;;7.45;1.80;;;26.50;99.90;;;;;;5079236;28;20086;-71
2023/08/14 09:18:59;;;;;;;6.35;2.00;;;26.50;99.90;;;;;;5078982;28;20083;-71
2023/08/14 09:21:26;;;;;;;59.33;9.27;;;26.50;99.90;;;;;;5062420;28;20087;-71
2023/08/14 09:23:53;;;;;;;15.60;3.22;;;26.60;99.90;;;;;;5078905;28;20047;-72
2023/08/14 09:26:20;;;;;;;10.30;2.63;;;26.60;99.90;;;;;;5079059;28;20510;-71
2023/08/14 09:28:46;;;;;;;7.88;2.10;;;26.70;99.90;;;;;;5078952;28;20047;-71
2023/08/14 09:31:13;;;;;;;52.83;8.60;;;26.90;99.90;;;;;;5078586;28;20063;-72
2023/08/14 09:33:44;;;;;;;13.07;3.00;;;26.90;99.90;;;;;;5078943;28;20039;-71
2023/08/14 09:36:17;;;;;;;7.73;1.90;;;26.90;98.60;;;;;;5078623;28;20044;-73
2023/08/14 09:38:51;;;;;;;14.13;3.20;;;26.90;98.80;;;;;;5062567;28;20362;-74
2023/08/14 09:41:19;;;;;;;22.65;4.90;;;27.00;99.90;;;;;;5030142;28;20498;-73
2023/08/14 09:43:45;;;;;;;14.30;3.45;;;27.10;99.10;;;;;;5078511;28;20491;-73
2023/08/14 09:46:13;;;;;;;6.75;2.05;;;27.10;97.70;;;;;;5078757;28;20039;-72
2023/08/14 09:48:47;;;;;;;7.25;2.00;;;27.10;99.10;;;;;;5078511;28;20051;-72
2023/08/14 09:51:15;;;;;;;7.57;2.17;;;27.10;99.40;;;;;;5095185;28;20077;-72
2023/08/14 09:53:48;;;;;;;15.35;4.40;;;27.20;98.90;;;;;;5078515;28;20169;-74
2023/08/14 09:56:14;;;;;;;10.68;3.05;;;27.30;98.70;;;;;;5078668;28;20039;-73
2023/08/14 09:58:58;;;;;;;7.82;2.10;;;27.40;98.30;;;;;;5077570;28;20503;-66
2023/08/14 10:01:27;;;;;;;7.13;2.03;;;27.40;97.10;;;;;;5061091;28;20066;-66
2023/08/14 10:03:54;;;;;;;9.02;2.38;;;27.40;98.10;;;;;;5061358;28;20044;-69
2023/08/14 10:06:24;;;;;;;5.93;1.80;;;27.40;97.70;;;;;;5077830;28;20044;-67
2023/08/14 10:09:01;;;;;;;5.88;1.67;;;27.50;96.60;;;;;;5077634;28;20047;-67
2023/08/14 10:11:29;;;;;;;7.20;2.03;;;27.40;96.10;;;;;;5061147;28;20138;-66
2023/08/14 10:14:00;;;;;;;9.27;2.08;;;27.40;95.60;;;;;;5077573;28;20044;-68
2023/08/14 10:16:38;;;;;;;8.55;2.00;;;27.30;96.20;;;;;;5077667;28;20050;-68
2023/08/14 10:19:09;;;;;;;5.15;1.60;;;27.30;96.50;;;;;;5061602;28;20066;-66
2023/08/14 10:21:37;;;;;;;5.70;1.70;;;27.40;94.70;;;;;;5077485;28;20084;-67
2023/08/14 10:24:04;;;;;;;8.68;2.00;;;27.50;94.80;;;;;;5077700;28;20055;-67
2023/08/14 10:26:37;;;;;;;6.95;1.90;;;27.70;93.10;;;;;;5077598;28;20044;-67
2023/08/14 10:29:05;;;;;;;5.85;1.70;;;27.60;94.80;;;;;;5077565;28;20488;-67
2023/08/14 10:31:31;;;;;;;5.47;1.70;;;27.60;93.70;;;;;;5077074;28;20052;-66
2023/08/14 10:33:58;;;;;;;5.28;1.58;;;27.70;91.90;;;;;;5060845;28;20182;-67
2023/08/14 10:36:30;;;;;;;6.00;1.80;;;27.70;92.60;;;;;;5077467;28;20102;-66
2023/08/14 10:39:06;;;;;;;6.25;1.85;;;27.50;94.70;;;;;;5077397;28;20135;-67
2023/08/14 10:41:38;;;;;;;5.90;1.77;;;27.60;93.30;;;;;;5060702;28;20503;-67
2023/08/14 10:44:10;;;;;;;7.25;1.80;;;27.60;91.50;;;;;;5061288;28;20484;-66
2023/08/14 10:46:43;;;;;;;5.00;1.65;;;27.60;90.50;;;;;;5077287;28;20097;-67
2023/08/14 10:49:18;;;;;;;5.63;1.60;;;27.50;92.40;;;;;;5077392;28;20137;-67
2023/08/14 10:51:43;;;;;;;5.30;1.52;;;27.60;92.80;;;;;;5060426;28;20079;-66
2023/08/14 10:54:15;;;;;;;5.45;1.70;;;27.60;92.50;;;;;;5076936;28;20085;-66
2023/08/14 10:56:42;;;;;;;6.03;1.70;;;27.60;92.70;;;;;;5077083;28;20047;-67
2023/08/14 10:59:28;;;;;;;5.85;1.65;;;27.50;92.00;;;;;;5077437;28;20044;-67
2023/08/14 11:02:05;;;;;;;6.22;1.52;;;27.50;93.30;;;;;;5076713;28;20040;-66
2023/08/14 11:04:35;;;;;;;5.32;1.80;;;27.50;93.10;;;;;;5076482;28;20092;-67
2023/08/14 11:07:11;;;;;;;7.38;1.85;;;27.50;93.70;;;;;;5076755;28;20115;-73
2023/08/14 11:09:40;;;;;;;6.47;1.60;;;27.70;93.10;;;;;;5077303;28;20040;-73
2023/08/14 11:12:08;;;;;;;6.13;1.77;;;27.80;93.40;;;;;;5062240;28;20423;-73
2023/08/14 11:14:41;;;;;;;6.22;1.77;;;27.80;92.60;;;;;;5078638;28;20039;-72
2023/08/14 11:17:14;;;;;;;5.68;1.75;;;27.70;91.60;;;;;;5096467;28;20177;-72
2023/08/14 11:19:39;;;;;;;6.63;1.70;;;27.70;92.00;;;;;;5078182;28;20040;-73
2023/08/14 11:22:06;;;;;;;5.78;1.80;;;27.70;92.20;;;;;;5077097;28;20036;-73
2023/08/14 11:24:41;;;;;;;6.22;1.80;;;27.60;92.50;;;;;;5060809;28;20036;-73
2023/08/14 11:27:16;;;;;;;6.15;1.80;;;27.50;91.90;;;;;;5060551;28;20083;-73
2023/08/14 11:29:42;;;;;;;5.75;1.60;;;27.40;91.70;;;;;;5077165;28;20036;-73
2023/08/14 11:32:11;;;;;;;6.28;1.77;;;26.90;92.00;;;;;;5076464;28;20105;-72
2023/08/14 11:34:38;;;;;;;6.55;1.77;;;26.80;92.90;;;;;;5044272;28;20048;-74
2023/08/14 11:37:05;;;;;;;5.85;1.80;;;27.00;93.40;;;;;;5060887;28;20043;-73
2023/08/14 11:39:31;;;;;;;6.65;1.98;;;27.30;94.00;;;;;;5077015;28;20035;-73
2023/08/14 11:41:57;;;;;;;5.80;1.70;;;27.50;93.00;;;;;;5076589;28;20123;-75
2023/08/14 11:44:29;;;;;;;5.43;1.80;;;27.70;93.40;;;;;;5076745;28;20123;-72
2023/08/14 11:47:06;;;;;;;7.53;2.08;;;27.80;92.70;;;;;;5093418;28;20032;-76
2023/08/14 11:49:39;;;;;;;5.35;1.80;;;27.80;92.70;;;;;;5076415;28;20387;-74
2023/08/14 11:52:05;;;;;;;7.13;1.70;;;27.90;92.60;;;;;;5059527;28;20085;-74
2023/08/14 11:54:35;;;;;;;7.22;1.95;;;27.80;92.40;;;;;;5076241;28;20043;-73
2023/08/14 11:57:02;;;;;;;7.65;1.80;;;27.80;92.40;;;;;;5076253;28;20040;-71
2023/08/14 11:59:28;;;;;;;7.13;1.70;;;28.00;92.80;;;;;;5076219;28;20075;-74
2023/08/14 12:01:56;;;;;;;6.78;1.90;;;27.90;92.20;;;;;;5094542;28;20044;-72
2023/08/14 12:04:22;;;;;;;6.78;2.08;;;27.60;92.70;;;;;;5076515;28;20036;-73
2023/08/14 12:06:48;;;;;;;7.15;1.90;;;27.30;93.50;;;;;;5076388;28;20039;-72
2023/08/14 12:09:13;;;;;;;7.22;1.95;;;27.00;93.60;;;;;;5076655;28;20395;-72
2023/08/14 12:11:39;;;;;;;6.50;1.95;;;27.00;94.20;;;;;;5076208;28;20127;-72
2023/08/14 12:14:06;;;;;;;5.93;1.90;;;27.30;92.30;;;;;;5059403;28;20066;-67
2023/08/14 12:16:36;;;;;;;5.47;1.80;;;27.30;92.70;;;;;;5075607;28;20089;-74
2023/08/14 12:19:09;;;;;;;5.40;1.70;;;27.50;93.00;;;;;;5077468;28;20036;-74
2023/08/14 12:21:44;;;;;;;6.57;1.83;;;27.60;92.10;;;;;;5062018;28;20093;-73
2023/08/14 12:24:16;;;;;;;6.43;1.73;;;27.80;91.90;;;;;;5068704;28;20115;-74
2023/08/14 12:26:48;;;;;;;5.93;1.73;;;27.90;92.60;;;;;;5081369;28;20063;-70
2023/08/14 12:29:18;;;;;;;5.95;1.77;;;28.00;91.30;;;;;;5036317;28;20117;-71
2023/08/14 12:31:46;;;;;;;6.88;1.80;;;27.90;89.90;;;;;;5060567;28;20052;-66
2023/08/14 12:34:21;;;;;;;6.70;1.80;;;27.70;90.60;;;;;;5059715;28;20507;-66
2023/08/14 12:36:47;;;;;;;8.13;1.90;;;27.60;92.20;;;;;;5075357;28;20496;-66
2023/08/14 12:39:13;;;;;;;7.05;2.00;;;27.30;91.40;;;;;;5059011;28;20090;-67
2023/08/14 12:41:38;;;;;;;6.65;1.85;;;27.00;90.80;;;;;;5075523;28;20069;-65
2023/08/14 12:44:07;;;;;;;5.65;1.80;;;27.00;92.50;;;;;;5075408;28;20556;-67
2023/08/14 12:46:33;;;;;;;6.50;2.10;;;26.90;92.10;;;;;;5075277;28;20044;-67
2023/08/14 12:48:59;;;;;;;5.50;1.88;;;26.70;92.80;;;;;;5075423;28;20537;-67
2023/08/14 12:51:24;;;;;;;6.60;1.80;;;26.30;93.60;;;;;;5058782;28;20084;-67